Potosi, Missouri
Current Conditions -  °F | °C
As of 11:35 AM on Thursday 23 Oct 2014 (Local Time) from KFAM Reporting Station
Clear Clear  
Wind Chill: 13°   Ceiling: Unl
Heat Index: 13°   Visibility: 10mi
Dew Point:   Wind: 9mph
Humidity: 63%   Direction: 170°S
Pressure: 30.24"   Gusts: NA
Location:  37.94°N, 90.79°W
Report Text: KFAM 231635Z AUTO 17008KT 10SM CLR 13/06 A3024 RMK AO1
Loading
Personal Weather Stations






























Interactive Weather Map
Tropical Storm Tracking
New forecast layout! Learn more

10-Day Weather Forecast

Advertisements
Track Severe Weather on mobile